NRT weather

Narita International Airport
Tokyo, Chiba Prefecture, Japan

Public forecast

Using degrees Celsius for public forecast. Weather courtesy of forecast.io.

METAR (pilot weather report)

Retrieved 2019/02/18 18:00 UTC (18 minutes ago):

RJAA 181800Z 33006KT 9000 FEW015 BKN170 05/03 Q1025 NOSIG

TAF (pilot weather forecast)

Retrieved 2019/02/18 18:00 UTC (18 minutes ago):

TAF RJAA 181707Z 1818/2000 31004KT 9999 FEW020 BKN030 BECMG 1903/1905 15005KT TEMPO 1906/1909 3500 -RA BR FEW003 BKN005 BECMG 1909/1912 36008KT 3000 -RA BR FEW005 BKN008 TEMPO 1909/1915 1500 RA BR FEW003 BKN004 TEMPO 1915/1921 0700 FG FEW002 BKN003